sensor_id;sensor_type;location;lat;lon;timestamp;P1;durP1;ratioP1;P2;durP2;ratioP2
54831;SDS011;40730;53.068;6.572;2024-01-30T00:01:12;24.90;;;18.08;;
54831;SDS011;40730;53.068;6.572;2024-01-30T00:03:38;27.38;;;18.77;;
54831;SDS011;40730;53.068;6.572;2024-01-30T00:06:04;26.45;;;19.95;;
54831;SDS011;40730;53.068;6.572;2024-01-30T00:08:29;27.25;;;18.95;;
54831;SDS011;40730;53.068;6.572;2024-01-30T00:10:55;30.52;;;19.15;;
54831;SDS011;40730;53.068;6.572;2024-01-30T00:13:20;23.55;;;18.52;;
54831;SDS011;40730;53.068;6.572;2024-01-30T00:15:46;26.83;;;18.42;;
54831;SDS011;40730;53.068;6.572;2024-01-30T00:18:12;27.17;;;17.77;;
54831;SDS011;40730;53.068;6.572;2024-01-30T00:20:37;27.48;;;19.20;;
54831;SDS011;40730;53.068;6.572;2024-01-30T00:23:03;26.02;;;17.98;;
54831;SDS011;40730;53.068;6.572;2024-01-30T00:25:29;23.95;;;19.05;;
54831;SDS011;40730;53.068;6.572;2024-01-30T00:27:55;23.88;;;18.65;;
54831;SDS011;40730;53.068;6.572;2024-01-30T00:30:21;28.83;;;18.52;;
54831;SDS011;40730;53.068;6.572;2024-01-30T00:32:46;26.48;;;18.55;;
54831;SDS011;40730;53.068;6.572;2024-01-30T00:35:12;27.67;;;19.08;;
54831;SDS011;40730;53.068;6.572;2024-01-30T00:37:37;24.85;;;17.95;;
54831;SDS011;40730;53.068;6.572;2024-01-30T00:40:03;25.83;;;19.40;;
54831;SDS011;40730;53.068;6.572;2024-01-30T00:42:31;29.13;;;20.58;;
54831;SDS011;40730;53.068;6.572;2024-01-30T00:44:56;26.55;;;19.05;;
54831;SDS011;40730;53.068;6.572;2024-01-30T00:47:22;26.98;;;18.80;;
54831;SDS011;40730;53.068;6.572;2024-01-30T00:49:48;26.33;;;18.98;;
54831;SDS011;40730;53.068;6.572;2024-01-30T00:52:13;25.83;;;19.23;;
54831;SDS011;40730;53.068;6.572;2024-01-30T00:54:39;28.95;;;19.48;;
54831;SDS011;40730;53.068;6.572;2024-01-30T00:57:04;27.15;;;18.08;;
54831;SDS011;40730;53.068;6.572;2024-01-30T00:59:30;26.90;;;19.17;;
54831;SDS011;40730;53.068;6.572;2024-01-30T01:01:56;31.83;;;19.10;;
54831;SDS011;40730;53.068;6.572;2024-01-30T01:04:21;27.27;;;19.65;;
54831;SDS011;40730;53.068;6.572;2024-01-30T01:06:47;29.42;;;18.80;;
54831;SDS011;40730;53.068;6.572;2024-01-30T01:09:12;30.17;;;20.17;;
54831;SDS011;40730;53.068;6.572;2024-01-30T01:11:38;28.70;;;18.73;;
54831;SDS011;40730;53.068;6.572;2024-01-30T01:14:04;26.20;;;19.60;;
54831;SDS011;40730;53.068;6.572;2024-01-30T01:16:30;29.23;;;19.75;;
54831;SDS011;40730;53.068;6.572;2024-01-30T01:18:56;27.55;;;18.52;;
54831;SDS011;40730;53.068;6.572;2024-01-30T01:21:21;29.73;;;20.55;;
54831;SDS011;40730;53.068;6.572;2024-01-30T01:23:48;27.98;;;20.60;;
54831;SDS011;40730;53.068;6.572;2024-01-30T01:26:13;27.73;;;19.10;;
54831;SDS011;40730;53.068;6.572;2024-01-30T01:28:40;27.35;;;19.27;;
54831;SDS011;40730;53.068;6.572;2024-01-30T01:31:06;27.40;;;19.17;;
54831;SDS011;40730;53.068;6.572;2024-01-30T01:33:32;33.15;;;20.48;;
54831;SDS011;40730;53.068;6.572;2024-01-30T01:35:58;24.92;;;18.75;;
54831;SDS011;40730;53.068;6.572;2024-01-30T01:38:24;28.70;;;19.75;;
54831;SDS011;40730;53.068;6.572;2024-01-30T01:40:50;27.02;;;18.98;;
54831;SDS011;40730;53.068;6.572;2024-01-30T01:43:16;28.33;;;19.60;;
54831;SDS011;40730;53.068;6.572;2024-01-30T01:45:42;28.75;;;18.38;;
54831;SDS011;40730;53.068;6.572;2024-01-30T01:48:07;27.05;;;19.17;;
54831;SDS011;40730;53.068;6.572;2024-01-30T01:50:34;26.88;;;19.60;;
54831;SDS011;40730;53.068;6.572;2024-01-30T01:53:01;27.42;;;19.10;;
54831;SDS011;40730;53.068;6.572;2024-01-30T01:55:28;28.83;;;19.55;;
54831;SDS011;40730;53.068;6.572;2024-01-30T01:57:55;25.77;;;18.77;;
54831;SDS011;40730;53.068;6.572;2024-01-30T02:00:21;26.50;;;19.08;;
54831;SDS011;40730;53.068;6.572;2024-01-30T02:02:48;29.45;;;19.48;;
54831;SDS011;40730;53.068;6.572;2024-01-30T02:05:15;28.33;;;19.38;;
54831;SDS011;40730;53.068;6.572;2024-01-30T02:07:41;26.95;;;17.65;;
54831;SDS011;40730;53.068;6.572;2024-01-30T02:10:08;26.38;;;18.05;;
54831;SDS011;40730;53.068;6.572;2024-01-30T02:12:36;27.35;;;18.33;;
54831;SDS011;40730;53.068;6.572;2024-01-30T02:15:02;27.85;;;18.83;;
54831;SDS011;40730;53.068;6.572;2024-01-30T02:17:29;28.08;;;18.70;;
54831;SDS011;40730;53.068;6.572;2024-01-30T02:19:55;23.17;;;17.88;;
54831;SDS011;40730;53.068;6.572;2024-01-30T02:22:21;26.13;;;18.40;;
54831;SDS011;40730;53.068;6.572;2024-01-30T02:24:48;25.95;;;17.58;;
54831;SDS011;40730;53.068;6.572;2024-01-30T02:27:14;29.38;;;17.73;;
54831;SDS011;40730;53.068;6.572;2024-01-30T02:29:40;26.63;;;17.58;;
54831;SDS011;40730;53.068;6.572;2024-01-30T02:32:06;26.02;;;17.90;;
54831;SDS011;40730;53.068;6.572;2024-01-30T02:34:32;22.77;;;17.20;;
54831;SDS011;40730;53.068;6.572;2024-01-30T02:36:58;26.58;;;18.55;;
54831;SDS011;40730;53.068;6.572;2024-01-30T02:39:24;23.90;;;17.88;;
54831;SDS011;40730;53.068;6.572;2024-01-30T02:41:50;25.05;;;17.17;;
54831;SDS011;40730;53.068;6.572;2024-01-30T02:44:15;24.98;;;16.67;;
54831;SDS011;40730;53.068;6.572;2024-01-30T02:46:41;23.35;;;17.08;;
54831;SDS011;40730;53.068;6.572;2024-01-30T02:49:07;24.40;;;17.23;;
54831;SDS011;40730;53.068;6.572;2024-01-30T02:51:32;24.35;;;17.25;;
54831;SDS011;40730;53.068;6.572;2024-01-30T02:53:58;23.35;;;16.20;;
54831;SDS011;40730;53.068;6.572;2024-01-30T02:56:24;23.70;;;16.85;;
54831;SDS011;40730;53.068;6.572;2024-01-30T02:58:50;23.33;;;16.92;;
54831;SDS011;40730;53.068;6.572;2024-01-30T03:01:15;24.05;;;16.60;;
54831;SDS011;40730;53.068;6.572;2024-01-30T03:03:41;22.95;;;16.48;;
54831;SDS011;40730;53.068;6.572;2024-01-30T03:06:08;26.45;;;17.15;;
54831;SDS011;40730;53.068;6.572;2024-01-30T03:08:33;24.85;;;16.80;;
54831;SDS011;40730;53.068;6.572;2024-01-30T03:11:00;21.70;;;15.68;;
54831;SDS011;40730;53.068;6.572;2024-01-30T03:13:26;25.20;;;17.08;;
54831;SDS011;40730;53.068;6.572;2024-01-30T03:15:52;27.02;;;16.45;;
54831;SDS011;40730;53.068;6.572;2024-01-30T03:18:17;21.77;;;16.15;;
54831;SDS011;40730;53.068;6.572;2024-01-30T03:20:43;19.42;;;15.65;;
54831;SDS011;40730;53.068;6.572;2024-01-30T03:23:08;23.60;;;16.05;;
54831;SDS011;40730;53.068;6.572;2024-01-30T03:25:34;23.55;;;16.50;;
54831;SDS011;40730;53.068;6.572;2024-01-30T03:27:59;21.77;;;15.85;;
54831;SDS011;40730;53.068;6.572;2024-01-30T03:30:25;21.10;;;16.83;;
54831;SDS011;40730;53.068;6.572;2024-01-30T03:32:51;20.70;;;15.48;;
54831;SDS011;40730;53.068;6.572;2024-01-30T03:35:16;23.95;;;16.05;;
54831;SDS011;40730;53.068;6.572;2024-01-30T03:37:43;22.02;;;15.65;;
54831;SDS011;40730;53.068;6.572;2024-01-30T03:40:09;20.48;;;15.32;;
54831;SDS011;40730;53.068;6.572;2024-01-30T03:42:35;24.40;;;15.68;;
54831;SDS011;40730;53.068;6.572;2024-01-30T03:45:01;23.23;;;15.77;;
54831;SDS011;40730;53.068;6.572;2024-01-30T03:47:27;22.25;;;15.63;;
54831;SDS011;40730;53.068;6.572;2024-01-30T03:49:53;20.48;;;15.05;;
54831;SDS011;40730;53.068;6.572;2024-01-30T03:52:18;20.25;;;15.23;;
54831;SDS011;40730;53.068;6.572;2024-01-30T03:54:44;21.77;;;14.55;;
54831;SDS011;40730;53.068;6.572;2024-01-30T03:57:09;19.98;;;14.43;;
54831;SDS011;40730;53.068;6.572;2024-01-30T03:59:35;21.75;;;14.57;;
54831;SDS011;40730;53.068;6.572;2024-01-30T04:02:01;22.05;;;15.45;;
54831;SDS011;40730;53.068;6.572;2024-01-30T04:04:27;18.67;;;15.15;;
54831;SDS011;40730;53.068;6.572;2024-01-30T04:06:52;19.73;;;15.10;;
54831;SDS011;40730;53.068;6.572;2024-01-30T04:09:18;18.90;;;14.68;;
54831;SDS011;40730;53.068;6.572;2024-01-30T04:11:43;19.50;;;14.00;;
54831;SDS011;40730;53.068;6.572;2024-01-30T04:14:09;20.30;;;14.98;;
54831;SDS011;40730;53.068;6.572;2024-01-30T04:16:35;19.90;;;14.75;;
54831;SDS011;40730;53.068;6.572;2024-01-30T04:19:01;19.30;;;13.93;;
54831;SDS011;40730;53.068;6.572;2024-01-30T04:21:27;18.10;;;14.02;;
54831;SDS011;40730;53.068;6.572;2024-01-30T04:23:52;23.60;;;13.75;;
54831;SDS011;40730;53.068;6.572;2024-01-30T04:26:18;21.38;;;13.30;;
54831;SDS011;40730;53.068;6.572;2024-01-30T04:28:44;17.13;;;12.82;;
54831;SDS011;40730;53.068;6.572;2024-01-30T04:31:10;19.50;;;12.65;;
54831;SDS011;40730;53.068;6.572;2024-01-30T04:33:36;21.73;;;13.10;;
54831;SDS011;40730;53.068;6.572;2024-01-30T04:36:01;16.70;;;12.32;;
54831;SDS011;40730;53.068;6.572;2024-01-30T04:38:28;19.27;;;12.77;;
54831;SDS011;40730;53.068;6.572;2024-01-30T04:40:53;16.15;;;12.23;;
54831;SDS011;40730;53.068;6.572;2024-01-30T04:43:19;19.05;;;12.05;;
54831;SDS011;40730;53.068;6.572;2024-01-30T04:45:45;20.33;;;12.95;;
54831;SDS011;40730;53.068;6.572;2024-01-30T04:48:10;16.70;;;10.95;;
54831;SDS011;40730;53.068;6.572;2024-01-30T04:50:36;17.38;;;13.02;;
54831;SDS011;40730;53.068;6.572;2024-01-30T04:53:01;15.35;;;12.60;;
54831;SDS011;40730;53.068;6.572;2024-01-30T04:55:27;20.33;;;11.80;;
54831;SDS011;40730;53.068;6.572;2024-01-30T04:57:53;14.40;;;11.90;;
54831;SDS011;40730;53.068;6.572;2024-01-30T05:00:18;16.30;;;11.98;;
54831;SDS011;40730;53.068;6.572;2024-01-30T05:02:44;18.00;;;12.65;;
54831;SDS011;40730;53.068;6.572;2024-01-30T05:05:09;17.75;;;11.95;;
54831;SDS011;40730;53.068;6.572;2024-01-30T05:07:36;19.27;;;13.35;;
54831;SDS011;40730;53.068;6.572;2024-01-30T05:10:01;15.90;;;12.00;;
54831;SDS011;40730;53.068;6.572;2024-01-30T05:12:28;17.58;;;12.30;;
54831;SDS011;40730;53.068;6.572;2024-01-30T05:14:56;18.42;;;12.38;;
54831;SDS011;40730;53.068;6.572;2024-01-30T05:17:22;20.75;;;12.82;;
54831;SDS011;40730;53.068;6.572;2024-01-30T05:19:47;15.82;;;12.13;;
54831;SDS011;40730;53.068;6.572;2024-01-30T05:22:13;18.48;;;12.60;;
54831;SDS011;40730;53.068;6.572;2024-01-30T05:24:40;17.50;;;12.60;;
54831;SDS011;40730;53.068;6.572;2024-01-30T05:27:07;16.95;;;12.43;;
54831;SDS011;40730;53.068;6.572;2024-01-30T05:29:33;15.98;;;12.13;;
54831;SDS011;40730;53.068;6.572;2024-01-30T05:31:59;19.23;;;12.80;;
54831;SDS011;40730;53.068;6.572;2024-01-30T05:34:24;18.45;;;12.43;;
54831;SDS011;40730;53.068;6.572;2024-01-30T05:36:50;17.77;;;12.55;;
54831;SDS011;40730;53.068;6.572;2024-01-30T05:39:15;22.45;;;13.68;;
54831;SDS011;40730;53.068;6.572;2024-01-30T05:41:41;15.75;;;12.40;;
54831;SDS011;40730;53.068;6.572;2024-01-30T05:44:07;15.60;;;11.70;;
54831;SDS011;40730;53.068;6.572;2024-01-30T05:46:33;16.45;;;11.55;;
54831;SDS011;40730;53.068;6.572;2024-01-30T05:48:58;17.02;;;12.38;;
54831;SDS011;40730;53.068;6.572;2024-01-30T05:51:24;15.05;;;11.43;;
54831;SDS011;40730;53.068;6.572;2024-01-30T05:53:50;17.85;;;11.38;;
54831;SDS011;40730;53.068;6.572;2024-01-30T05:56:15;20.48;;;11.27;;
54831;SDS011;40730;53.068;6.572;2024-01-30T05:58:41;13.48;;;11.63;;
54831;SDS011;40730;53.068;6.572;2024-01-30T06:01:08;14.60;;;10.90;;
54831;SDS011;40730;53.068;6.572;2024-01-30T06:03:34;17.38;;;11.75;;
54831;SDS011;40730;53.068;6.572;2024-01-30T06:06:00;15.25;;;10.95;;
54831;SDS011;40730;53.068;6.572;2024-01-30T06:08:25;16.75;;;11.57;;
54831;SDS011;40730;53.068;6.572;2024-01-30T06:10:51;19.42;;;11.40;;
54831;SDS011;40730;53.068;6.572;2024-01-30T06:13:17;15.85;;;11.38;;
54831;SDS011;40730;53.068;6.572;2024-01-30T06:15:42;15.88;;;11.32;;
54831;SDS011;40730;53.068;6.572;2024-01-30T06:18:08;14.73;;;10.32;;
54831;SDS011;40730;53.068;6.572;2024-01-30T06:20:34;19.08;;;11.35;;
54831;SDS011;40730;53.068;6.572;2024-01-30T06:22:59;16.33;;;11.20;;
54831;SDS011;40730;53.068;6.572;2024-01-30T06:25:25;19.85;;;11.73;;
54831;SDS011;40730;53.068;6.572;2024-01-30T06:27:51;13.32;;;10.35;;
54831;SDS011;40730;53.068;6.572;2024-01-30T06:30:17;13.20;;;10.20;;
54831;SDS011;40730;53.068;6.572;2024-01-30T06:32:43;15.60;;;11.43;;
54831;SDS011;40730;53.068;6.572;2024-01-30T06:35:09;14.68;;;10.95;;
54831;SDS011;40730;53.068;6.572;2024-01-30T06:37:35;16.52;;;11.00;;
54831;SDS011;40730;53.068;6.572;2024-01-30T06:40:01;14.73;;;11.25;;
54831;SDS011;40730;53.068;6.572;2024-01-30T06:42:29;14.93;;;10.88;;
54831;SDS011;40730;53.068;6.572;2024-01-30T06:44:55;14.60;;;11.07;;
54831;SDS011;40730;53.068;6.572;2024-01-30T06:47:20;14.55;;;10.05;;
54831;SDS011;40730;53.068;6.572;2024-01-30T06:49:46;18.25;;;11.15;;
54831;SDS011;40730;53.068;6.572;2024-01-30T06:52:12;14.85;;;10.05;;
54831;SDS011;40730;53.068;6.572;2024-01-30T06:54:37;16.67;;;11.13;;
54831;SDS011;40730;53.068;6.572;2024-01-30T06:57:03;16.55;;;11.07;;
54831;SDS011;40730;53.068;6.572;2024-01-30T06:59:29;13.70;;;10.38;;
54831;SDS011;40730;53.068;6.572;2024-01-30T07:01:54;15.98;;;10.73;;
54831;SDS011;40730;53.068;6.572;2024-01-30T07:04:20;16.35;;;11.50;;
54831;SDS011;40730;53.068;6.572;2024-01-30T07:06:46;15.38;;;10.32;;
54831;SDS011;40730;53.068;6.572;2024-01-30T07:09:11;17.17;;;10.60;;
54831;SDS011;40730;53.068;6.572;2024-01-30T07:11:38;15.45;;;10.45;;
54831;SDS011;40730;53.068;6.572;2024-01-30T07:14:04;14.30;;;9.93;;
54831;SDS011;40730;53.068;6.572;2024-01-30T07:16:29;16.20;;;10.23;;
54831;SDS011;40730;53.068;6.572;2024-01-30T07:18:55;14.35;;;9.98;;
54831;SDS011;40730;53.068;6.572;2024-01-30T07:21:21;13.25;;;10.02;;
54831;SDS011;40730;53.068;6.572;2024-01-30T07:23:52;13.55;;;9.68;;
54831;SDS011;40730;53.068;6.572;2024-01-30T07:26:21;22.35;;;10.88;;
54831;SDS011;40730;53.068;6.572;2024-01-30T07:28:47;13.90;;;10.32;;
54831;SDS011;40730;53.068;6.572;2024-01-30T07:31:12;12.30;;;10.23;;
54831;SDS011;40730;53.068;6.572;2024-01-30T07:33:38;15.88;;;11.02;;
54831;SDS011;40730;53.068;6.572;2024-01-30T07:36:03;17.67;;;10.95;;
54831;SDS011;40730;53.068;6.572;2024-01-30T07:38:31;13.00;;;10.13;;
54831;SDS011;40730;53.068;6.572;2024-01-30T07:40:57;16.80;;;10.65;;
54831;SDS011;40730;53.068;6.572;2024-01-30T07:43:23;15.15;;;11.18;;
54831;SDS011;40730;53.068;6.572;2024-01-30T07:45:48;17.17;;;10.55;;
54831;SDS011;40730;53.068;6.572;2024-01-30T07:48:14;16.42;;;10.27;;
54831;SDS011;40730;53.068;6.572;2024-01-30T07:50:39;17.25;;;10.90;;
54831;SDS011;40730;53.068;6.572;2024-01-30T07:53:05;16.20;;;10.70;;
54831;SDS011;40730;53.068;6.572;2024-01-30T07:55:30;16.05;;;11.13;;
54831;SDS011;40730;53.068;6.572;2024-01-30T07:57:57;15.80;;;10.88;;
54831;SDS011;40730;53.068;6.572;2024-01-30T08:00:26;13.88;;;10.77;;
54831;SDS011;40730;53.068;6.572;2024-01-30T08:02:54;14.15;;;9.70;;
54831;SDS011;40730;53.068;6.572;2024-01-30T08:05:20;17.17;;;10.65;;
54831;SDS011;40730;53.068;6.572;2024-01-30T08:07:47;15.98;;;10.70;;
54831;SDS011;40730;53.068;6.572;2024-01-30T08:10:14;16.50;;;10.85;;
54831;SDS011;40730;53.068;6.572;2024-01-30T08:12:40;14.77;;;10.07;;
54831;SDS011;40730;53.068;6.572;2024-01-30T08:15:06;14.50;;;10.30;;
54831;SDS011;40730;53.068;6.572;2024-01-30T08:17:33;16.17;;;10.10;;
54831;SDS011;40730;53.068;6.572;2024-01-30T08:19:58;14.10;;;10.07;;
54831;SDS011;40730;53.068;6.572;2024-01-30T08:22:24;13.98;;;10.88;;
54831;SDS011;40730;53.068;6.572;2024-01-30T08:24:50;13.98;;;9.65;;
54831;SDS011;40730;53.068;6.572;2024-01-30T08:27:15;14.95;;;10.02;;
54831;SDS011;40730;53.068;6.572;2024-01-30T08:29:41;15.30;;;10.25;;
54831;SDS011;40730;53.068;6.572;2024-01-30T08:32:07;15.25;;;9.48;;
54831;SDS011;40730;53.068;6.572;2024-01-30T08:34:33;14.07;;;9.73;;
54831;SDS011;40730;53.068;6.572;2024-01-30T08:36:59;13.98;;;9.68;;
54831;SDS011;40730;53.068;6.572;2024-01-30T08:39:24;14.05;;;9.73;;
54831;SDS011;40730;53.068;6.572;2024-01-30T08:41:50;14.30;;;9.13;;
54831;SDS011;40730;53.068;6.572;2024-01-30T08:44:16;16.52;;;9.00;;
54831;SDS011;40730;53.068;6.572;2024-01-30T08:46:42;10.82;;;8.40;;
54831;SDS011;40730;53.068;6.572;2024-01-30T08:49:10;14.32;;;9.43;;
54831;SDS011;40730;53.068;6.572;2024-01-30T08:51:38;14.43;;;9.52;;
54831;SDS011;40730;53.068;6.572;2024-01-30T08:54:06;14.27;;;9.63;;
54831;SDS011;40730;53.068;6.572;2024-01-30T08:56:32;14.57;;;9.43;;
54831;SDS011;40730;53.068;6.572;2024-01-30T08:58:58;11.20;;;8.50;;
54831;SDS011;40730;53.068;6.572;2024-01-30T09:01:24;12.80;;;9.02;;
54831;SDS011;40730;53.068;6.572;2024-01-30T09:03:50;14.35;;;8.95;;
54831;SDS011;40730;53.068;6.572;2024-01-30T09:06:16;13.90;;;9.27;;
54831;SDS011;40730;53.068;6.572;2024-01-30T09:08:41;12.60;;;9.73;;
54831;SDS011;40730;53.068;6.572;2024-01-30T09:11:11;11.10;;;8.88;;
54831;SDS011;40730;53.068;6.572;2024-01-30T09:13:38;14.93;;;8.98;;
54831;SDS011;40730;53.068;6.572;2024-01-30T09:16:04;13.30;;;8.55;;
54831;SDS011;40730;53.068;6.572;2024-01-30T09:18:29;14.70;;;8.88;;
54831;SDS011;40730;53.068;6.572;2024-01-30T09:20:55;15.15;;;8.80;;
54831;SDS011;40730;53.068;6.572;2024-01-30T09:23:21;13.27;;;8.45;;
54831;SDS011;40730;53.068;6.572;2024-01-30T09:25:47;10.75;;;8.45;;
54831;SDS011;40730;53.068;6.572;2024-01-30T09:28:12;11.90;;;8.93;;
54831;SDS011;40730;53.068;6.572;2024-01-30T09:30:38;14.65;;;9.35;;
54831;SDS011;40730;53.068;6.572;2024-01-30T09:33:03;12.38;;;8.82;;
54831;SDS011;40730;53.068;6.572;2024-01-30T09:35:29;15.73;;;8.88;;
54831;SDS011;40730;53.068;6.572;2024-01-30T09:37:55;12.43;;;8.35;;
54831;SDS011;40730;53.068;6.572;2024-01-30T09:40:22;11.23;;;8.57;;
54831;SDS011;40730;53.068;6.572;2024-01-30T09:42:47;14.27;;;8.80;;
54831;SDS011;40730;53.068;6.572;2024-01-30T09:45:17;12.02;;;7.93;;
54831;SDS011;40730;53.068;6.572;2024-01-30T09:47:44;13.93;;;9.07;;
54831;SDS011;40730;53.068;6.572;2024-01-30T09:50:11;11.10;;;7.97;;
54831;SDS011;40730;53.068;6.572;2024-01-30T09:52:38;10.82;;;7.50;;
54831;SDS011;40730;53.068;6.572;2024-01-30T09:55:05;14.55;;;8.27;;
54831;SDS011;40730;53.068;6.572;2024-01-30T09:57:31;13.48;;;8.27;;
54831;SDS011;40730;53.068;6.572;2024-01-30T09:59:57;13.52;;;8.57;;
54831;SDS011;40730;53.068;6.572;2024-01-30T10:02:23;12.35;;;8.38;;
54831;SDS011;40730;53.068;6.572;2024-01-30T10:04:49;16.77;;;8.40;;
54831;SDS011;40730;53.068;6.572;2024-01-30T10:07:16;13.00;;;7.88;;
54831;SDS011;40730;53.068;6.572;2024-01-30T10:09:46;10.88;;;8.18;;
54831;SDS011;40730;53.068;6.572;2024-01-30T10:12:12;11.65;;;8.25;;
54831;SDS011;40730;53.068;6.572;2024-01-30T10:14:38;11.73;;;8.90;;
54831;SDS011;40730;53.068;6.572;2024-01-30T10:17:04;13.27;;;8.50;;
54831;SDS011;40730;53.068;6.572;2024-01-30T10:19:31;20.15;;;9.30;;
54831;SDS011;40730;53.068;6.572;2024-01-30T10:21:56;14.07;;;8.68;;
54831;SDS011;40730;53.068;6.572;2024-01-30T10:24:25;12.68;;;8.30;;
54831;SDS011;40730;53.068;6.572;2024-01-30T10:26:51;17.98;;;9.18;;
54831;SDS011;40730;53.068;6.572;2024-01-30T10:29:18;15.35;;;8.75;;
54831;SDS011;40730;53.068;6.572;2024-01-30T10:31:44;18.80;;;9.05;;
54831;SDS011;40730;53.068;6.572;2024-01-30T10:34:09;16.63;;;8.80;;
54831;SDS011;40730;53.068;6.572;2024-01-30T10:36:39;12.32;;;8.50;;
54831;SDS011;40730;53.068;6.572;2024-01-30T10:39:08;12.25;;;9.05;;
54831;SDS011;40730;53.068;6.572;2024-01-30T10:41:37;13.25;;;9.27;;
54831;SDS011;40730;53.068;6.572;2024-01-30T10:44:10;13.95;;;8.82;;
54831;SDS011;40730;53.068;6.572;2024-01-30T10:46:37;14.30;;;9.30;;
54831;SDS011;40730;53.068;6.572;2024-01-30T10:49:04;14.77;;;9.57;;
54831;SDS011;40730;53.068;6.572;2024-01-30T10:51:30;12.98;;;9.18;;
54831;SDS011;40730;53.068;6.572;2024-01-30T10:53:57;14.30;;;9.18;;
54831;SDS011;40730;53.068;6.572;2024-01-30T10:56:23;16.80;;;9.77;;
54831;SDS011;40730;53.068;6.572;2024-01-30T10:58:50;17.25;;;8.65;;
54831;SDS011;40730;53.068;6.572;2024-01-30T11:01:20;12.35;;;9.90;;
54831;SDS011;40730;53.068;6.572;2024-01-30T11:03:53;14.77;;;9.60;;
54831;SDS011;40730;53.068;6.572;2024-01-30T11:06:23;13.40;;;9.48;;
54831;SDS011;40730;53.068;6.572;2024-01-30T11:09:02;13.88;;;9.85;;
54831;SDS011;40730;53.068;6.572;2024-01-30T11:11:46;13.93;;;9.75;;
54831;SDS011;40730;53.068;6.572;2024-01-30T11:14:33;16.58;;;9.88;;
54831;SDS011;40730;53.068;6.572;2024-01-30T11:16:59;17.70;;;9.93;;
54831;SDS011;40730;53.068;6.572;2024-01-30T11:19:25;16.88;;;9.25;;
54831;SDS011;40730;53.068;6.572;2024-01-30T11:21:55;20.10;;;9.95;;
54831;SDS011;40730;53.068;6.572;2024-01-30T11:24:22;16.42;;;10.48;;
54831;SDS011;40730;53.068;6.572;2024-01-30T11:26:49;16.33;;;9.98;;
54831;SDS011;40730;53.068;6.572;2024-01-30T11:29:18;12.73;;;9.50;;
54831;SDS011;40730;53.068;6.572;2024-01-30T11:31:53;14.48;;;9.75;;
54831;SDS011;40730;53.068;6.572;2024-01-30T11:34:20;14.40;;;8.45;;
54831;SDS011;40730;53.068;6.572;2024-01-30T11:36:48;16.35;;;9.52;;
54831;SDS011;40730;53.068;6.572;2024-01-30T11:39:32;18.40;;;10.60;;
54831;SDS011;40730;53.068;6.572;2024-01-30T11:41:58;18.45;;;10.55;;
54831;SDS011;40730;53.068;6.572;2024-01-30T11:44:24;17.20;;;10.15;;
54831;SDS011;40730;53.068;6.572;2024-01-30T11:46:51;17.17;;;11.13;;
54831;SDS011;40730;53.068;6.572;2024-01-30T11:49:17;19.60;;;8.18;;
54831;SDS011;40730;53.068;6.572;2024-01-30T11:51:43;14.82;;;6.60;;
54831;SDS011;40730;53.068;6.572;2024-01-30T11:54:14;16.83;;;5.63;;
54831;SDS011;40730;53.068;6.572;2024-01-30T11:56:40;18.38;;;6.28;;
54831;SDS011;40730;53.068;6.572;2024-01-30T11:59:08;14.38;;;4.50;;
54831;SDS011;40730;53.068;6.572;2024-01-30T12:01:34;17.08;;;4.93;;
54831;SDS011;40730;53.068;6.572;2024-01-30T12:03:59;14.27;;;4.18;;
54831;SDS011;40730;53.068;6.572;2024-01-30T12:06:25;11.43;;;3.22;;
54831;SDS011;40730;53.068;6.572;2024-01-30T12:08:56;11.82;;;3.28;;
54831;SDS011;40730;53.068;6.572;2024-01-30T12:11:23;15.52;;;3.20;;
54831;SDS011;40730;53.068;6.572;2024-01-30T12:13:49;11.68;;;3.35;;
54831;SDS011;40730;53.068;6.572;2024-01-30T12:16:16;16.77;;;3.55;;
54831;SDS011;40730;53.068;6.572;2024-01-30T12:18:41;15.00;;;3.70;;
54831;SDS011;40730;53.068;6.572;2024-01-30T12:21:07;9.75;;;3.08;;
54831;SDS011;40730;53.068;6.572;2024-01-30T12:23:34;10.15;;;2.53;;
54831;SDS011;40730;53.068;6.572;2024-01-30T12:26:00;8.48;;;2.42;;
54831;SDS011;40730;53.068;6.572;2024-01-30T12:28:28;8.95;;;2.13;;
54831;SDS011;40730;53.068;6.572;2024-01-30T12:31:00;9.90;;;2.13;;
54831;SDS011;40730;53.068;6.572;2024-01-30T12:33:28;7.00;;;1.60;;
54831;SDS011;40730;53.068;6.572;2024-01-30T12:35:54;7.88;;;1.55;;
54831;SDS011;40730;53.068;6.572;2024-01-30T12:38:20;6.57;;;1.02;;
54831;SDS011;40730;53.068;6.572;2024-01-30T12:40:46;3.97;;;0.70;;
54831;SDS011;40730;53.068;6.572;2024-01-30T12:43:13;5.22;;;0.70;;
54831;SDS011;40730;53.068;6.572;2024-01-30T12:45:38;1.58;;;0.40;;
54831;SDS011;40730;53.068;6.572;2024-01-30T12:48:04;2.38;;;0.30;;
54831;SDS011;40730;53.068;6.572;2024-01-30T12:50:30;2.80;;;0.20;;
54831;SDS011;40730;53.068;6.572;2024-01-30T12:52:56;4.65;;;0.20;;
54831;SDS011;40730;53.068;6.572;2024-01-30T12:55:22;1.08;;;0.10;;
54831;SDS011;40730;53.068;6.572;2024-01-30T12:57:47;2.83;;;0.20;;
54831;SDS011;40730;53.068;6.572;2024-01-30T13:00:13;2.72;;;0.40;;
54831;SDS011;40730;53.068;6.572;2024-01-30T13:02:38;2.55;;;0.25;;
54831;SDS011;40730;53.068;6.572;2024-01-30T13:05:04;2.35;;;0.20;;
54831;SDS011;40730;53.068;6.572;2024-01-30T13:07:31;1.25;;;0.20;;
54831;SDS011;40730;53.068;6.572;2024-01-30T13:09:57;3.40;;;0.30;;
54831;SDS011;40730;53.068;6.572;2024-01-30T13:12:29;2.55;;;0.20;;
54831;SDS011;40730;53.068;6.572;2024-01-30T13:14:55;2.67;;;0.20;;
54831;SDS011;40730;53.068;6.572;2024-01-30T13:17:21;1.77;;;0.20;;
54831;SDS011;40730;53.068;6.572;2024-01-30T13:19:46;1.10;;;0.40;;
54831;SDS011;40730;53.068;6.572;2024-01-30T13:22:14;1.17;;;0.10;;
54831;SDS011;40730;53.068;6.572;2024-01-30T13:24:40;1.75;;;0.28;;
54831;SDS011;40730;53.068;6.572;2024-01-30T13:27:06;2.13;;;0.10;;
54831;SDS011;40730;53.068;6.572;2024-01-30T13:29:32;1.70;;;0.00;;
54831;SDS011;40730;53.068;6.572;2024-01-30T13:31:58;1.63;;;0.10;;
54831;SDS011;40730;53.068;6.572;2024-01-30T13:34:23;1.38;;;0.10;;
54831;SDS011;40730;53.068;6.572;2024-01-30T13:36:49;1.17;;;0.10;;
54831;SDS011;40730;53.068;6.572;2024-01-30T13:39:15;1.02;;;0.13;;
54831;SDS011;40730;53.068;6.572;2024-01-30T13:41:41;0.50;;;0.10;;
54831;SDS011;40730;53.068;6.572;2024-01-30T13:44:07;1.75;;;0.10;;
54831;SDS011;40730;53.068;6.572;2024-01-30T13:46:34;1.08;;;0.10;;
54831;SDS011;40730;53.068;6.572;2024-01-30T13:49:01;0.68;;;0.10;;
54831;SDS011;40730;53.068;6.572;2024-01-30T13:51:27;2.67;;;0.10;;
54831;SDS011;40730;53.068;6.572;2024-01-30T13:53:52;0.88;;;0.00;;
54831;SDS011;40730;53.068;6.572;2024-01-30T13:56:19;1.92;;;0.00;;
54831;SDS011;40730;53.068;6.572;2024-01-30T13:58:45;1.92;;;0.90;;
54831;SDS011;40730;53.068;6.572;2024-01-30T14:01:13;1.75;;;0.10;;
54831;SDS011;40730;53.068;6.572;2024-01-30T14:03:39;2.10;;;0.10;;
54831;SDS011;40730;53.068;6.572;2024-01-30T14:06:04;0.80;;;0.10;;
54831;SDS011;40730;53.068;6.572;2024-01-30T14:08:30;1.38;;;0.10;;
54831;SDS011;40730;53.068;6.572;2024-01-30T14:10:56;1.63;;;0.15;;
54831;SDS011;40730;53.068;6.572;2024-01-30T14:13:22;2.03;;;0.30;;
54831;SDS011;40730;53.068;6.572;2024-01-30T14:15:48;2.85;;;0.15;;
54831;SDS011;40730;53.068;6.572;2024-01-30T14:18:14;3.08;;;0.20;;
54831;SDS011;40730;53.068;6.572;2024-01-30T14:20:40;1.60;;;0.20;;
54831;SDS011;40730;53.068;6.572;2024-01-30T14:23:06;2.78;;;0.17;;